Temp: 5.7°C   Baro: 1005.6mb
  Wind: 2.9mph   Dir: N (7°)
  Rain: 4.2mm (0.0mm/hr)
  Solar: 0W/m2  Hum: 88%

Historic data

Bath Spa Weather Station Historical Data
Daily Summary for September 19, 2019 Units:  Metric    English   Both
Daily Weekly Monthly Yearly Custom
  High: Low: Average:
Temperature: 14.9 °C 9.4 °C 11.3 °C
Dew Point: 14 °C 7.4 °C 9.6 °C
Humidity: 95% 83% 89%
Wind Speed: 34.4km/h 0km/h 4.2km/h
Wind Gust: 46.7km/h - -
Wind- - South
Pressure: 997.9 hPa 984 hPa -
Precipitation: 12.45 mm    
Historical Graphs
 
 
Tabular Data for September 19, 2019
Time Temperature Dew Point Pressure Wind Wind Speed Wind Gust Humidity Rainfall Rate (Hourly) solar
00:04 11.9 °C 9.9 °C 997.9 hPa Calm     87.4% 0 mm 0 W/m2
00:09 11.9 °C 10 °C 997.9 hPa Calm     88% 0 mm 0 W/m2
00:14 11.8 °C 9.9 °C 997.9 hPa Calm     88% 0 mm 0 W/m2
00:19 11.8 °C 9.9 °C 997.9 hPa Calm     88% 0 mm 0 W/m2
00:24 11.8 °C 9.9 °C 997.9 hPa Calm     88% 0 mm 0 W/m2
00:29 11.8 °C 9.9 °C 997.9 hPa Calm     88% 0 mm 0 W/m2
00:34 11.8 °C 9.9 °C 997.9 hPa Calm     88% 0 mm 0 W/m2
00:39 11.8 °C 9.9 °C 997.5 hPa Calm     88% 0 mm 0 W/m2
00:44 11.8 °C 9.9 °C 997.5 hPa Calm     88.6% 0 mm 0 W/m2
00:49 11.8 °C 10 °C 997.9 hPa Calm     89% 0 mm 0 W/m2
00:54 11.8 °C 10 °C 997.9 hPa Calm     89% 0.25 mm 0 W/m2
00:59 11.7 °C 9.9 °C 997.5 hPa Calm     89.2% 0.25 mm 0 W/m2
01:04 11.7 °C 10.1 °C 997.5 hPa Calm     90% 0.51 mm 0 W/m2
01:09 11.6 °C 10 °C 997.5 hPa Calm     90% 0.76 mm 0 W/m2
01:14 11.4 °C 9.9 °C 997.5 hPa Calm     90.5% 0.76 mm 0 W/m2
01:19 11.4 °C 10 °C 997.5 hPa Calm     91% 0.76 mm 0 W/m2
01:24 11.3 °C 9.9 °C 997.5 hPa Calm     91% 1.02 mm 0 W/m2
01:29 11.3 °C 9.9 °C 997.2 hPa Calm     91% 1.02 mm 0 W/m2
01:34 11.3 °C 9.9 °C 997.2 hPa Calm     91.8% 1.27 mm 0 W/m2
01:39 11.3 °C 10 °C 997.2 hPa Calm     92% 1.27 mm 0 W/m2
01:44 11.3 °C 10 °C 997.2 hPa Calm     92% 1.27 mm 0 W/m2
01:49 11.3 °C 10 °C 997.5 hPa Calm     92% 1.27 mm 0 W/m2
01:54 11.3 °C 9.9 °C 997.5 hPa Calm     92% 1.52 mm 0 W/m2
01:59 11.3 °C 10 °C 997.2 hPa Calm     92% 1.52 mm 0 W/m2
02:04 11.3 °C 10 °C 996.8 hPa Calm     92% 1.52 mm 0 W/m2
02:09 11.3 °C 10 °C 996.5 hPa Calm     92% 1.52 mm 0 W/m2
02:14 11.3 °C 10 °C 996.2 hPa Calm     92% 1.52 mm 0 W/m2
02:19 11.3 °C 10 °C 996.2 hPa Calm     92% 1.52 mm 0 W/m2
02:24 11.3 °C 10 °C 996.2 hPa Calm     92% 1.52 mm 0 W/m2
02:29 11.3 °C 10 °C 996.5 hPa Calm     92% 1.52 mm 0 W/m2
02:34 11.3 °C 10.1 °C 996.8 hPa Calm     92% 1.27 mm 0 W/m2
02:39 11.4 °C 10.1 °C 996.8 hPa Calm     92% 1.27 mm 0 W/m2
02:44 11.4 °C 10.1 °C 996.8 hPa Calm     92% 1.27 mm 0 W/m2
02:49 11.4 °C 10.1 °C 996.8 hPa Calm     92% 1.27 mm 0 W/m2
02:54 11.3 °C 10.1 °C 996.8 hPa Calm     92% 1.02 mm 0 W/m2
02:59 11.3 °C 10 °C 996.8 hPa Calm     92% 1.02 mm 0 W/m2
03:04 11.2 °C 9.9 °C 996.8 hPa Calm     92% 0.76 mm 0 W/m2
03:09 11.2 °C 9.9 °C 996.5 hPa Calm     92% 0.51 mm 0 W/m2
03:14 11.3 °C 9.9 °C 996.5 hPa Calm     92% 0.51 mm 0 W/m2
03:19 11.3 °C 10 °C 996.5 hPa Calm     92% 0.51 mm 0 W/m2
03:24 11.3 °C 10.1 °C 996.2 hPa Calm     92% 0.51 mm 0 W/m2
03:29 11.4 °C 10.1 °C 996.2 hPa Calm     92% 0.51 mm 0 W/m2
03:34 11.6 °C 10.2 °C 995.8 hPa Calm     92% 0.51 mm 0 W/m2
03:39 11.6 °C 10.3 °C 995.8 hPa Calm     92% 0.51 mm 0 W/m2
03:44 11.6 °C 10.3 °C 995.8 hPa Calm     92% 0.51 mm 0 W/m2
03:49 11.6 °C 10.3 °C 995.8 hPa Calm     92% 0.51 mm 0 W/m2
03:54 11.6 °C 10.3 °C 996.2 hPa Calm     92% 0.51 mm 0 W/m2
03:59 11.7 °C 10.4 °C 996.2 hPa Calm     92% 0.25 mm 0 W/m2
04:04 11.8 °C 10.4 °C 996.2 hPa Calm     91% 0.25 mm 0 W/m2
04:09 11.9 °C 10.5 °C 995.8 hPa Calm     91% 0 mm 0 W/m2
04:14 12.1 °C 10.7 °C 995.8 hPa Calm     91% 0 mm 0 W/m2
04:19 12.1 °C 10.7 °C 995.8 hPa Calm     90.8% 0 mm 0 W/m2
04:24 12.2 °C 10.6 °C 995.8 hPa Calm     90% 0 mm 0 W/m2
04:29 12.2 °C 10.7 °C 995.8 hPa Calm     90% 0 mm 0 W/m2
04:34 12.3 °C 10.7 °C 996.2 hPa Calm     90% 0 mm 0 W/m2
04:39 12.2 °C 10.6 °C 996.2 hPa Calm     90% 0 mm 0 W/m2
04:44 12.3 °C 10.7 °C 996.2 hPa Calm     90% 0 mm 0 W/m2
04:49 12.3 °C 10.7 °C 995.8 hPa Calm     90% 0 mm 0 W/m2
04:54 12.3 °C 10.7 °C 995.8 hPa Calm     90% 0 mm 0 W/m2
04:59 12.3 °C 10.7 °C 996.2 hPa Calm     90% 0 mm 0 W/m2
05:04 12.4 °C 10.8 °C 995.8 hPa Calm     90% 0 mm 0 W/m2
05:09 12.4 °C 10.8 °C 996.2 hPa Calm     90% 0 mm 0 W/m2
05:14 12.4 °C 10.8 °C 995.8 hPa Calm     90% 0 mm 0 W/m2
05:19 12.3 °C 10.7 °C 995.8 hPa Calm     90% 0 mm 0 W/m2
05:24 12.3 °C 10.7 °C 996.2 hPa Calm     90% 0 mm 0 W/m2
05:29 12.2 °C 10.7 °C 995.8 hPa Calm     90.4% 0 mm 0 W/m2
05:34 12.2 °C 10.8 °C 995.8 hPa Calm     91% 0 mm 0 W/m2
05:39 12.2 °C 10.8 °C 995.8 hPa Calm     91% 0 mm 0 W/m2
05:44 12.2 °C 10.8 °C 995.8 hPa Calm     91% 0 mm 0 W/m2
05:49 12.2 °C 10.8 °C 995.8 hPa Calm     91% 0 mm 0 W/m2
05:54 12.2 °C 10.8 °C 995.8 hPa Calm     91% 0 mm 0 W/m2
05:59 12.2 °C 10.8 °C 995.8 hPa Calm     91% 0 mm 0 W/m2
06:04 12.2 °C 10.8 °C 995.8 hPa Calm     91% 0 mm 0 W/m2
06:09 12.2 °C 10.8 °C 995.8 hPa Calm     91% 0 mm 0 W/m2
06:14 12.2 °C 10.7 °C 995.8 hPa Calm     90.4% 0 mm 0 W/m2
06:19 12.2 °C 10.7 °C 995.8 hPa Calm     90.6% 0 mm 0 W/m2
06:24 12.2 °C 10.8 °C 995.8 hPa Calm     91% 0 mm 0 W/m2
06:29 12.1 °C 10.7 °C 996.2 hPa Calm     91% 0 mm 0 W/m2
06:34 12.1 °C 10.7 °C 996.2 hPa Calm     91% 0 mm 0 W/m2
06:39 12.1 °C 10.7 °C 996.2 hPa Calm     91% 0 mm 0 W/m2
06:44 12.1 °C 10.7 °C 996.2 hPa Calm     91% 0 mm 0 W/m2
06:49 12.2 °C 10.8 °C 996.2 hPa Calm     91% 0 mm 0 W/m2
06:54 12.2 °C 10.8 °C 996.2 hPa Calm     91% 0 mm 0 W/m2
06:59 12.2 °C 10.7 °C 996.2 hPa Calm     90.6% 0 mm 0 W/m2
07:04 12.3 °C 10.7 °C 996.2 hPa Calm     90% 0 mm 0 W/m2
07:08 12.3 °C 10.7 °C 996.2 hPa Calm     90% 0 mm 0 W/m2
07:14 12.3 °C 10.6 °C 996.5 hPa Calm     89.2% 0 mm 0 W/m2
07:19 12.4 °C 10.6 °C 996.5 hPa Calm     89% 0 mm 0 W/m2
07:24 12.3 °C 10.6 °C 996.2 hPa Calm     89% 0 mm 0 W/m2
07:29 12.3 °C 10.5 °C 996.2 hPa Calm     89% 0.25 mm 0 W/m2
07:34 12.3 °C 10.4 °C 996.2 hPa Calm     89% 0.25 mm 0 W/m2
07:39 12.2 °C 10.4 °C 996.2 hPa Calm     89% 0.25 mm 0 W/m2
07:44 12.1 °C 10.3 °C 996.2 hPa Calm     89% 0.25 mm 0 W/m2
07:49 12.1 °C 10.3 °C 996.2 hPa Calm     89% 0.25 mm 0 W/m2
07:54 12.1 °C 10.3 °C 996.2 hPa Calm     89% 0.25 mm 0 W/m2
07:59 12.1 °C 10.3 °C 996.2 hPa Calm     89% 0.25 mm 0 W/m2
08:04 12 °C 10.2 °C 996.2 hPa Calm     89% 0.25 mm 0 W/m2
08:09 11.9 °C 10.1 °C 996.5 hPa Calm     89% 0.25 mm 0 W/m2
08:14 11.9 °C 10.1 °C 996.5 hPa Calm     89% 0.25 mm 0 W/m2
08:19 11.9 °C 10.1 °C 996.5 hPa Calm     89% 0.25 mm 0 W/m2
08:23 11.9 °C 10.1 °C 996.5 hPa Calm     89% 0.25 mm 0 W/m2
08:29 11.9 °C 10.1 °C 996.5 hPa Calm     89% 0.25 mm 0 W/m2
08:34 11.9 °C 10.1 °C 996.5 hPa Calm     89% 0 mm 0 W/m2
08:39 11.9 °C 10.1 °C 996.5 hPa Calm     89% 0 mm 7 W/m2
08:44 11.8 °C 10 °C 996.2 hPa Calm     89% 0 mm 7 W/m2
08:49 11.8 °C 10.1 °C 996.5 hPa Calm     89.2% 0 mm 9 W/m2
08:54 11.8 °C 10.1 °C 996.5 hPa Calm     89.4% 0 mm 16 W/m2
08:59 11.8 °C 10.2 °C 996.2 hPa Calm     89.8% 0 mm 18 W/m2
09:04 11.8 °C 10.2 °C 996.2 hPa Calm     90% 0 mm 16 W/m2
09:09 11.8 °C 10.2 °C 996.2 hPa Calm     90% 0 mm 16 W/m2
09:14 11.8 °C 10.2 °C 996.2 hPa Calm     90% 0 mm 21 W/m2
09:19 11.8 °C 10.2 °C 996.2 hPa Calm     90% 0 mm 39 W/m2
09:24 11.8 °C 10.2 °C 995.8 hPa Calm     90% 0 mm 44 W/m2
09:29 11.8 °C 10.2 °C 995.8 hPa Calm     90% 0 mm 42 W/m2
09:34 11.8 °C 10.2 °C 995.8 hPa Calm     90% 0 mm 40 W/m2
09:39 11.8 °C 10.2 °C 995.8 hPa Calm     90% 0 mm 25 W/m2
09:44 11.8 °C 10.2 °C 995.8 hPa Calm     90% 0 mm 26 W/m2
09:49 11.8 °C 10.2 °C 995.8 hPa Calm     90% 0 mm 49 W/m2
09:54 11.8 °C 10.2 °C 995.5 hPa Calm     90% 0 mm 65 W/m2
09:59 11.8 °C 10.2 °C 995.5 hPa Calm     90% 0 mm 79 W/m2
10:04 11.8 °C 10.2 °C 995.1 hPa Calm     90% 0 mm 83 W/m2
10:09 11.8 °C 10.2 °C 995.1 hPa Calm     90% 0 mm 81 W/m2
10:14 11.8 °C 10.2 °C 995.5 hPa Calm     90% 0 mm 37 W/m2
10:19 11.9 °C 10.3 °C 995.5 hPa Calm     90% 0 mm 70 W/m2
10:24 11.9 °C 10.3 °C 995.1 hPa Calm     90% 0 mm 86 W/m2
10:29 11.9 °C 10.3 °C 995.1 hPa Calm     90% 0 mm 72 W/m2
10:34 11.9 °C 10.3 °C 995.1 hPa Calm     90% 0 mm 163 W/m2
10:38 12 °C 10.4 °C 995.1 hPa Calm     90% 0 mm 144 W/m2
10:44 12 °C 10.4 °C 995.1 hPa Calm     90% 0 mm 63 W/m2
10:49 12 °C 10.3 °C 995.1 hPa Calm     89.2% 0 mm 39 W/m2
10:54 11.9 °C 10.2 °C 995.1 hPa Calm     89.2% 0 mm 28 W/m2
10:59 12 °C 10.2 °C 994.8 hPa Calm     89% 0 mm 40 W/m2
11:04 12 °C 10.2 °C 994.8 hPa Calm     89% 0 mm 56 W/m2
11:09 12 °C 10.3 °C 994.8 hPa Calm     89.3% 0 mm 58 W/m2
11:14 12 °C 10.3 °C 994.5 hPa Calm     89.4% 0 mm 63 W/m2
11:19 12 °C 10.3 °C 994.5 hPa Calm     89.4% 0 mm 42 W/m2
11:24 12 °C 10.4 °C 994.5 hPa Calm     90% 0 mm 54 W/m2
11:29 12.1 °C 10.2 °C 994.1 hPa Calm     89% 0 mm 49 W/m2
11:34 12 °C 10.2 °C 994.1 hPa Calm     89% 0 mm 53 W/m2
11:39 11.9 °C 10.2 °C 994.1 hPa Calm     89% 0.25 mm 40 W/m2
11:44 11.9 °C 10.2 °C 994.1 hPa Calm     89.8% 0.25 mm 58 W/m2
11:49 11.9 °C 10.2 °C 993.8 hPa Calm     89.6% 0.25 mm 60 W/m2
11:54 11.9 °C 10.1 °C 993.8 hPa Calm     89.2% 0.51 mm 26 W/m2
11:59 11.8 °C 10.2 °C 993.5 hPa Calm     90% 0.51 mm 23 W/m2
12:04 11.7 °C 10.1 °C 993.5 hPa Calm     90% 1.02 mm 18 W/m2
12:09 11.6 °C 10.1 °C 993.5 hPa Calm     90.4% 1.27 mm 19 W/m2
12:14 11.6 °C 10.2 °C 993.1 hPa Calm     91% 1.27 mm 18 W/m2
12:19 11.6 °C 10.2 °C 993.1 hPa Calm     91% 1.52 mm 18 W/m2
12:24 11.5 °C 10.1 °C 992.8 hPa Calm     91% 1.52 mm 21 W/m2
12:29 11.4 °C 10.1 °C 992.1 hPa Calm     91% 1.52 mm 42 W/m2
12:34 11.4 °C 10 °C 991.8 hPa Calm     91% 1.52 mm 44 W/m2
12:39 11.4 °C 10 °C 991.4 hPa Calm     91% 1.52 mm 46 W/m2
12:44 11.4 °C 10 °C 991.4 hPa Calm     91% 1.52 mm 42 W/m2
12:49 11.4 °C 10 °C 991.4 hPa Calm     91% 1.52 mm 26 W/m2
12:54 11.4 °C 10 °C 991.4 hPa Calm     91% 1.52 mm 30 W/m2
12:59 11.3 °C 9.9 °C 991.4 hPa Calm     91% 1.27 mm 26 W/m2
13:04 11.3 °C 9.9 °C 991.4 hPa Calm     91% 1.02 mm 11 W/m2
13:09 11.3 °C 9.9 °C 991.4 hPa Calm     91% 1.02 mm 11 W/m2
13:14 11.3 °C 9.9 °C 991.1 hPa Calm     91% 1.52 mm 11 W/m2
13:19 11.2 °C 9.8 °C 990.7 hPa Calm     91.2% 2.29 mm 28 W/m2
13:24 11.2 °C 9.8 °C 990.4 hPa Calm     91.5% 2.29 mm 44 W/m2
13:29 11.1 °C 9.8 °C 990.1 hPa Calm     92% 2.54 mm 42 W/m2
13:34 11.1 °C 9.8 °C 989.7 hPa Calm     92% 2.54 mm 37 W/m2
13:39 10.9 °C 9.8 °C 989.7 hPa Calm     92% 2.79 mm 33 W/m2
13:44 10.9 °C 9.7 °C 989.7 hPa Calm     92% 2.79 mm 19 W/m2
13:49 10.9 °C 9.8 °C 989.7 hPa Calm     92.8% 3.3 mm 11 W/m2
13:54 10.8 °C 9.8 °C 989.7 hPa Calm     93% 4.32 mm 9 W/m2
13:59 10.8 °C 9.7 °C 989.7 hPa Calm     93% 4.57 mm 12 W/m2
14:04 10.8 °C 9.7 °C 989.7 hPa Calm     93% 4.83 mm 12 W/m2
14:09 10.7 °C 9.6 °C 989.4 hPa Calm     93% 4.83 mm 11 W/m2
14:14 10.7 °C 9.6 °C 989.4 hPa Calm     93% 4.83 mm 11 W/m2
14:19 10.7 °C 9.6 °C 988.4 hPa Calm     93% 4.32 mm 12 W/m2
14:24 10.9 °C 10 °C 988.4 hPa Calm     93.8% 4.32 mm 11 W/m2
14:29 12 °C 11.1 °C 988.4 hPa Calm     94% 4.06 mm 0 W/m2
14:34 12.4 °C 11.5 °C 988.4 hPa NE 7.2 km/h 16.1 km/h 94% 4.06 mm 0 W/m2
14:39 13.5 °C 12.6 °C 988.4 hPa Calm   16.1 km/h 94.6% 3.81 mm 0 W/m2
14:44 14.5 °C 13.7 °C 988.4 hPa Calm   9.7 km/h 95% 4.06 mm 0 W/m2
14:49 14.6 °C 13.8 °C 988 hPa Calm     95% 3.81 mm 0 W/m2
14:54 14.7 °C 13.8 °C 988 hPa Calm     94.4% 3.05 mm 0 W/m2
14:59 14.9 °C 14 °C 987.7 hPa South 4.2 km/h 11.3 km/h 94.4% 2.29 mm 11 W/m2
15:04 12 °C 10.9 °C 987.7 hPa SSW 6.8 km/h 12.9 km/h 93% 2.29 mm 23 W/m2
15:09 10.8 °C 9.6 °C 988.7 hPa South 7.1 km/h 16.1 km/h 92% 2.03 mm 51 W/m2
15:14 10.7 °C 9.2 °C 988.4 hPa South 5.1 km/h 11.3 km/h 91% 1.52 mm 53 W/m2
15:19 10.6 °C 9.2 °C 988.4 hPa SSW 6.8 km/h 12.9 km/h 90.8% 1.27 mm 40 W/m2
15:24 10.7 °C 8.9 °C 989.1 hPa SSE 13.5 km/h 22.5 km/h 89.2% 1.02 mm 19 W/m2
15:29 10.8 °C 8.7 °C 988.7 hPa SSE 7.1 km/h 19.3 km/h 87% 1.02 mm 14 W/m2
15:34 10.7 °C 8.6 °C 988.7 hPa SSE 8.7 km/h 16.1 km/h 86.4% 0.76 mm 12 W/m2
15:38 10.7 °C 8.4 °C 988.7 hPa SSE 9.7 km/h 16.1 km/h 86% 0.76 mm 9 W/m2
15:44 10.6 °C 8.3 °C 989.1 hPa SSE 8.4 km/h 16.1 km/h 86% 0.51 mm 7 W/m2
15:49 10.4 °C 8.2 °C 989.4 hPa SSE 9.2 km/h 20.9 km/h 86% 0.51 mm 0 W/m2
15:54 10.2 °C 8 °C 989.4 hPa South 14.6 km/h 25.7 km/h 86% 0.76 mm 0 W/m2
15:59 9.9 °C 7.8 °C 989.1 hPa SSE 12.6 km/h 22.5 km/h 86% 0.76 mm 0 W/m2
16:04 9.8 °C 7.7 °C 989.1 hPa South 11.9 km/h 19.3 km/h 86% 0.25 mm 0 W/m2
16:09 9.8 °C 7.7 °C 988.7 hPa SSE 9.7 km/h 19.3 km/h 86.6% 0.25 mm 0 W/m2
16:14 9.7 °C 7.6 °C 989.1 hPa SE 9 km/h 19.3 km/h 86.6% 0.25 mm 0 W/m2
16:19 9.7 °C 7.6 °C 988.7 hPa SSE 14 km/h 19.3 km/h 87% 0.25 mm 0 W/m2
16:24 9.7 °C 7.6 °C 988.7 hPa SSE 8 km/h 19.3 km/h 87% 0.25 mm 0 W/m2
16:29 9.7 °C 7.6 °C 988.7 hPa SE 8.4 km/h 19.3 km/h 87% 0.25 mm 0 W/m2
16:34 9.7 °C 7.6 °C 988.4 hPa SSE 8.2 km/h 17.7 km/h 87% 0.25 mm 0 W/m2
16:39 9.6 °C 7.4 °C 988.7 hPa SSE 11.9 km/h 22.5 km/h 87% 0.51 mm 0 W/m2
16:44 9.4 °C 7.4 °C 988.4 hPa SSE 10.6 km/h 16.1 km/h 87.4% 0.51 mm 0 W/m2
16:49 9.4 °C 7.5 °C 988.4 hPa SE 8.9 km/h 20.9 km/h 88% 0.51 mm 0 W/m2
16:54 9.6 °C 7.7 °C 988 hPa SSE 20 km/h 29 km/h 88% 0.51 mm 0 W/m2
16:59 9.7 °C 7.8 °C 988 hPa SSE 12.1 km/h 27.4 km/h 88% 0.25 mm 0 W/m2
17:04 9.8 °C 7.9 °C 987.7 hPa South 10.6 km/h 24.1 km/h 88% 0.25 mm 0 W/m2
17:09 9.8 °C 7.9 °C 987.7 hPa SSE 9.2 km/h 22.5 km/h 88% 0.25 mm 0 W/m2
17:14 9.8 °C 7.9 °C 987.4 hPa SSE 16.4 km/h 27.4 km/h 88% 0.25 mm 0 W/m2
17:19 9.9 °C 8 °C 987.7 hPa SE 18.3 km/h 29 km/h 88% 0.25 mm 0 W/m2
17:23 9.9 °C 8.1 °C 987.4 hPa SSE 18 km/h 33.8 km/h 88% 0.25 mm 0 W/m2
17:29 10.1 °C 8.2 °C 987.7 hPa SSE 16.9 km/h 33.8 km/h 88% 0.25 mm 0 W/m2
17:34 10.2 °C 8.3 °C 987.4 hPa SSE 14.6 km/h 29 km/h 88% 0.25 mm 0 W/m2
17:39 10.2 °C 8.3 °C 987.4 hPa SSE 13.5 km/h 25.7 km/h 88% 0 mm 0 W/m2
17:44 10.2 °C 8.3 °C 987.4 hPa SSE 13.2 km/h 29 km/h 88% 0 mm 0 W/m2
17:49 10.4 °C 8.4 °C 987.4 hPa SSE 17.1 km/h 30.6 km/h 87.6% 0 mm 0 W/m2
17:54 10.6 °C 8.4 °C 987.4 hPa South 11.9 km/h 29 km/h 86.8% 0 mm 0 W/m2
17:59 10.7 °C 8.4 °C 987.4 hPa SSE 14.2 km/h 20.9 km/h 86.2% 0 mm 0 W/m2
18:04 10.7 °C 8.5 °C 987.4 hPa South 11.9 km/h 19.3 km/h 86% 0 mm 0 W/m2
18:09 10.7 °C 8.5 °C 987.4 hPa South 9.7 km/h 20.9 km/h 86% 0 mm 0 W/m2
18:14 10.8 °C 8.6 °C 987 hPa SSE 15.8 km/h 24.1 km/h 85.8% 0 mm 0 W/m2
18:19 10.9 °C 8.5 °C 987.4 hPa SSE 20 km/h 32.2 km/h 85% 0 mm 0 W/m2
18:24 10.8 °C 8.3 °C 987.4 hPa SSW 15.1 km/h 37 km/h 84.2% 0 mm 0 W/m2
18:28 10.7 °C 8.1 °C 987 hPa South 12.9 km/h 20.9 km/h 84% 0 mm 0 W/m2
18:34 10.6 °C 8 °C 987 hPa South 7.9 km/h 27.4 km/h 84% 0 mm 0 W/m2
18:39 10.4 °C 8 °C 987 hPa South 18.7 km/h 30.6 km/h 84.8% 0 mm 0 W/m2
18:44 10.4 °C 7.9 °C 987 hPa South 34.4 km/h 46.7 km/h 84.4% 0 mm 0 W/m2
18:49 10.6 °C 8 °C 987 hPa South 12.6 km/h 35.4 km/h 84% 0 mm 0 W/m2
18:54 10.5 °C 7.9 °C 987 hPa South 12.2 km/h 27.4 km/h 84% 0 mm 0 W/m2
18:59 10.4 °C 7.8 °C 987 hPa South 9.2 km/h 27.4 km/h 84% 0 mm 0 W/m2
19:04 10.5 °C 8 °C 987 hPa South 10.9 km/h 27.4 km/h 84.4% 0 mm 0 W/m2
19:09 10.5 °C 8.1 °C 987 hPa SSW 11.3 km/h 29 km/h 85% 0 mm 0 W/m2
19:14 10.6 °C 8.2 °C 987 hPa SW 10.5 km/h 30.6 km/h 85% 0 mm 0 W/m2
19:19 10.5 °C 8.1 °C 987 hPa SSW 9.3 km/h 22.5 km/h 85% 0 mm 0 W/m2
19:24 10.6 °C 8.2 °C 987 hPa SSW 11.3 km/h 29 km/h 85% 0 mm 0 W/m2
19:29 10.6 °C 8.2 °C 987 hPa SSW 9.3 km/h 22.5 km/h 85% 0 mm 0 W/m2
19:34 10.6 °C 8.2 °C 987 hPa South 10.1 km/h 25.7 km/h 85% 0 mm 0 W/m2
19:39 10.7 °C 8.2 °C 986.7 hPa South 14.8 km/h 30.6 km/h 84.4% 0 mm 0 W/m2
19:44 10.8 °C 8.2 °C 986.7 hPa South 11.9 km/h 25.7 km/h 84% 0 mm 0 W/m2
19:49 10.8 °C 8.2 °C 986.7 hPa South 14.6 km/h 25.7 km/h 84% 0 mm 0 W/m2
19:54 10.9 °C 8.2 °C 986.7 hPa South 13.7 km/h 25.7 km/h 83.3% 0 mm 0 W/m2
19:59 10.9 °C 8.1 °C 986.7 hPa SSW 14.5 km/h 22.5 km/h 83% 0 mm 0 W/m2
20:04 10.9 °C 8.2 °C 986.7 hPa South 12.6 km/h 25.7 km/h 83.2% 0 mm 0 W/m2
20:09 10.9 °C 8.1 °C 986.7 hPa SSW 13.4 km/h 27.4 km/h 83% 0 mm 0 W/m2
20:14 10.9 °C 8.1 °C 986.7 hPa South 10.9 km/h 20.9 km/h 83% 0 mm 0 W/m2
20:19 10.9 °C 8.1 °C 986.7 hPa SSW 9 km/h 25.7 km/h 83% 0 mm 0 W/m2
20:24 10.9 °C 8.2 °C 986.3 hPa SSW 11.4 km/h 22.5 km/h 83.6% 0 mm 0 W/m2
20:29 10.9 °C 8.3 °C 986.7 hPa South 8 km/h 17.7 km/h 84% 0 mm 0 W/m2
20:34 10.9 °C 8.3 °C 986.3 hPa South 7.1 km/h 16.1 km/h 84% 0 mm 0 W/m2
20:39 10.9 °C 8.3 °C 986.3 hPa South 6.6 km/h 19.3 km/h 84% 0 mm 0 W/m2
20:43 10.8 °C 8.2 °C 986.3 hPa South 4.7 km/h 11.3 km/h 84% 0 mm 0 W/m2
20:49 10.8 °C 8.4 °C 986.3 hPa SSE 6 km/h 11.3 km/h 85% 0 mm 0 W/m2
20:54 10.8 °C 8.4 °C 986.3 hPa South 6.6 km/h 16.1 km/h 85% 0 mm 0 W/m2
20:59 10.8 °C 8.4 °C 986.3 hPa South 8.2 km/h 16.1 km/h 85% 0 mm 0 W/m2
21:04 10.8 °C 8.4 °C 986.3 hPa South 7.7 km/h 17.7 km/h 85% 0 mm 0 W/m2
21:09 10.8 °C 8.4 °C 986.3 hPa SSE 3.2 km/h 12.9 km/h 85% 0 mm 0 W/m2
21:14 10.8 °C 8.4 °C 986 hPa South 6.1 km/h 17.7 km/h 85% 0 mm 0 W/m2
21:19 10.8 °C 8.4 °C 986 hPa South 5.8 km/h 11.3 km/h 85% 0 mm 0 W/m2
21:24 10.7 °C 8.3 °C 986 hPa South 6.4 km/h 12.9 km/h 85% 0 mm 0 W/m2
21:29 10.8 °C 8.4 °C 986 hPa SSE 8 km/h 12.9 km/h 85% 0 mm 0 W/m2
21:34 10.8 °C 8.3 °C 986.3 hPa South 15.4 km/h 29 km/h 85% 0 mm 0 W/m2
21:39 10.8 °C 8.4 °C 986.3 hPa South 7.7 km/h 22.5 km/h 85% 0 mm 0 W/m2
21:44 10.8 °C 8.4 °C 986.3 hPa South 7.9 km/h 16.1 km/h 85% 0 mm 0 W/m2
21:49 10.8 °C 8.4 °C 986 hPa South 13.5 km/h 22.5 km/h 85% 0 mm 0 W/m2
21:54 10.8 °C 8.4 °C 986 hPa South 7.9 km/h 19.3 km/h 85% 0 mm 0 W/m2
21:59 10.7 °C 8.5 °C 986 hPa South 11.9 km/h 20.9 km/h 85.8% 0 mm 0 W/m2
22:04 10.7 °C 8.5 °C 986 hPa South 12.7 km/h 20.9 km/h 86% 0 mm 0 W/m2
22:09 10.7 °C 8.3 °C 986 hPa South 12.2 km/h 30.6 km/h 85% 0 mm 0 W/m2
22:14 10.8 °C 8.4 °C 986 hPa South 11.3 km/h 30.6 km/h 85% 0 mm 0 W/m2
22:19 10.7 °C 8.3 °C 985.7 hPa SSE 11.9 km/h 19.3 km/h 85% 0 mm 0 W/m2
22:24 10.7 °C 8.3 °C 985.7 hPa SSE 10.6 km/h 20.9 km/h 85% 0 mm 0 W/m2
22:29 10.7 °C 8.3 °C 985.7 hPa South 14.8 km/h 32.2 km/h 85% 0 mm 0 W/m2
22:34 10.7 °C 8.3 °C 985.7 hPa South 12.1 km/h 24.1 km/h 85% 0 mm 0 W/m2
22:39 10.7 °C 8.2 °C 985.3 hPa SSE 10.6 km/h 19.3 km/h 84.6% 0 mm 0 W/m2
22:44 10.6 °C 8.2 °C 985.3 hPa South 10.3 km/h 24.1 km/h 85% 0 mm 0 W/m2
22:49 10.6 °C 8.2 °C 985.3 hPa SSE 9 km/h 16.1 km/h 85% 0 mm 0 W/m2
22:54 10.4 °C 8.1 °C 985.3 hPa SSE 7.7 km/h 17.7 km/h 85.2% 0 mm 0 W/m2
22:59 10.4 °C 8.2 °C 985.3 hPa SSE 8 km/h 17.7 km/h 86% 0 mm 0 W/m2
23:04 10.4 °C 8.2 °C 985.3 hPa SSE 8.5 km/h 16.1 km/h 86% 0 mm 0 W/m2
23:09 10.4 °C 8.2 °C 985.3 hPa SSE 7.2 km/h 16.1 km/h 86% 0 mm 0 W/m2
23:14 10.3 °C 8.2 °C 985 hPa SSE 6 km/h 16.1 km/h 86.6% 0 mm 0 W/m2
23:19 10.3 °C 8.2 °C 984.6 hPa South 9 km/h 16.1 km/h 87% 0 mm 0 W/m2
23:24 10.3 °C 8.2 °C 984.6 hPa SSE 8.9 km/h 12.9 km/h 87% 0 mm 0 W/m2
23:29 10.2 °C 8.2 °C 984.6 hPa South 9.7 km/h 17.7 km/h 87% 0 mm 0 W/m2
23:34 10.2 °C 8.1 °C 984.3 hPa SSE 6.8 km/h 14.5 km/h 87% 0 mm 0 W/m2
23:39 10.2 °C 8.2 °C 984 hPa SSE 6.8 km/h 14.5 km/h 87.6% 0 mm 0 W/m2
23:44 10.1 °C 8.2 °C 984 hPa SSE 8.9 km/h 16.1 km/h 88% 0 mm 0 W/m2
23:49 10.1 °C 8.2 °C 984.3 hPa SSE 11.3 km/h 20.9 km/h 88% 0 mm 0 W/m2
23:54 10.1 °C 8.2 °C 984.3 hPa SSE 12.6 km/h 24.1 km/h 88% 0 mm 0 W/m2
23:59 10.1 °C 8.2 °C 984.3 hPa SSE 9.2 km/h 24.1 km/h 88% 0 mm 0 W/m2
Bath Spa Weather
Compliments of Weather Underground - 2 mb